createdAt,value
2022-10-20T00:02:42.313Z,97573.28
2022-10-20T00:07:45.841Z,97570.59
2022-10-20T00:12:48.991Z,97563.53
2022-10-20T00:17:53.829Z,97546.44
2022-10-20T00:22:57.174Z,97557.03
2022-10-20T00:28:00.610Z,97554.53
2022-10-20T00:33:08.072Z,97561.00
2022-10-20T00:38:14.920Z,97559.88
2022-10-20T00:43:19.779Z,97560.09
2022-10-20T00:48:28.418Z,97563.28
2022-10-20T00:53:31.936Z,97563.78
2022-10-20T00:58:35.788Z,97567.78
2022-10-20T01:03:51.516Z,97568.34
2022-10-20T01:08:57.570Z,97565.88
2022-10-20T01:14:03.000Z,97571.09
2022-10-20T01:19:38.150Z,97573.81
2022-10-20T01:25:03.355Z,97573.84
2022-10-20T01:30:17.674Z,97578.25
2022-10-20T01:35:23.695Z,97574.47
2022-10-20T01:40:58.677Z,97576.38
2022-10-20T01:46:03.650Z,97579.88
2022-10-20T01:51:08.427Z,97573.06
2022-10-20T01:56:30.242Z,97584.50
2022-10-20T02:02:18.136Z,97582.03
2022-10-20T02:07:29.431Z,97588.31
2022-10-20T02:12:37.938Z,97584.84
2022-10-20T02:18:05.910Z,97589.78
2022-10-20T02:23:10.282Z,97587.06
2022-10-20T02:28:15.942Z,97595.19
2022-10-20T02:33:20.283Z,97592.97
2022-10-20T02:38:24.392Z,97587.00
2022-10-20T02:43:27.897Z,97595.97
2022-10-20T02:48:31.116Z,97595.69
2022-10-20T02:53:34.579Z,97595.44
2022-10-20T02:58:38.190Z,97589.78
2022-10-20T03:03:41.893Z,97597.69
2022-10-20T03:08:45.310Z,97592.28
2022-10-20T03:13:48.445Z,97600.44
2022-10-20T03:18:51.802Z,97596.66
2022-10-20T03:23:57.044Z,97593.41
2022-10-20T03:29:00.699Z,97592.31
2022-10-20T03:34:03.974Z,97606.44
2022-10-20T03:39:07.514Z,97610.22
2022-10-20T03:44:11.638Z,97616.19
2022-10-20T03:49:15.155Z,97617.00
2022-10-20T03:54:18.445Z,97619.19
2022-10-20T03:59:24.437Z,97621.59
2022-10-20T04:04:30.015Z,97627.28
2022-10-20T04:09:33.373Z,97629.72
2022-10-20T04:14:39.539Z,97627.25
2022-10-20T04:19:42.822Z,97631.84
2022-10-20T04:24:45.987Z,97635.31
2022-10-20T04:29:50.393Z,97638.28
2022-10-20T04:34:53.935Z,97641.25
2022-10-20T04:39:57.451Z,97642.59
2022-10-20T04:45:01.203Z,97649.34
2022-10-20T04:50:06.748Z,97655.28
2022-10-20T04:55:10.383Z,97664.47
2022-10-20T05:00:15.678Z,97667.28
2022-10-20T05:05:19.004Z,97667.50
2022-10-20T05:10:22.712Z,97679.00
2022-10-20T05:15:27.456Z,97675.72
2022-10-20T05:20:36.826Z,97686.38
2022-10-20T05:25:49.374Z,97683.75
2022-10-20T05:30:53.849Z,97693.53
2022-10-20T05:35:58.732Z,97697.34
2022-10-20T05:41:14.022Z,97696.13
2022-10-20T05:46:18.152Z,97697.81
2022-10-20T05:51:25.755Z,97703.28
2022-10-20T05:56:32.825Z,97701.63
2022-10-20T06:01:39.829Z,97723.53
2022-10-20T06:06:43.551Z,97731.41
2022-10-20T06:11:47.097Z,97725.88
2022-10-20T06:16:52.455Z,97728.38
2022-10-20T06:21:55.707Z,97740.09
2022-10-20T06:26:59.350Z,97738.03
2022-10-20T06:32:02.867Z,97746.03
2022-10-20T06:37:06.471Z,97743.09
2022-10-20T06:42:16.018Z,97747.03
2022-10-20T06:47:22.287Z,97746.31
2022-10-20T06:52:26.301Z,97735.34
2022-10-20T06:57:32.273Z,97739.16
2022-10-20T07:02:41.735Z,97741.81
2022-10-20T07:07:48.356Z,97746.03
2022-10-20T07:12:51.708Z,97750.66
2022-10-20T07:17:54.943Z,97752.94
2022-10-20T07:22:58.258Z,97751.28
2022-10-20T07:28:01.692Z,97752.97
2022-10-20T07:33:06.071Z,97751.22
2022-10-20T07:38:10.351Z,97756.44
2022-10-20T07:43:14.080Z,97755.28
2022-10-20T07:48:17.389Z,97734.66
2022-10-20T07:53:21.290Z,97745.19
2022-10-20T07:58:25.531Z,97730.31
2022-10-20T08:03:28.937Z,97740.81
2022-10-20T08:08:33.374Z,97732.41
2022-10-20T08:13:36.628Z,97721.81
2022-10-20T08:24:03.637Z,97715.94
2022-10-20T08:29:06.913Z,97714.53
2022-10-20T08:34:10.352Z,97717.16
2022-10-20T08:39:13.656Z,97710.00
2022-10-20T08:44:26.494Z,97711.88
2022-10-20T08:49:33.915Z,97709.31
2022-10-20T08:54:37.490Z,97717.84
2022-10-20T08:59:40.999Z,97707.13
2022-10-20T09:04:47.188Z,97701.38
2022-10-20T09:09:50.934Z,97691.06
2022-10-20T09:14:55.672Z,97689.22
2022-10-20T09:20:01.387Z,97687.41
2022-10-20T09:25:06.112Z,97687.28
2022-10-20T09:30:24.466Z,97676.84
2022-10-20T09:35:36.220Z,97679.22
2022-10-20T09:40:46.981Z,97670.19
2022-10-20T09:45:54.994Z,97669.09
2022-10-20T09:50:59.624Z,97675.03
2022-10-20T09:56:03.220Z,97663.19
2022-10-20T10:01:13.561Z,97660.81
2022-10-20T10:06:31.236Z,97664.66
2022-10-20T10:11:38.739Z,97666.16
2022-10-20T10:16:46.737Z,97658.25
2022-10-20T10:21:56.888Z,97649.88
2022-10-20T10:27:00.089Z,97659.09
2022-10-20T10:32:26.294Z,97656.63
2022-10-20T10:37:34.019Z,97657.28
2022-10-20T10:42:41.408Z,97663.34
2022-10-20T10:48:02.819Z,97657.88
2022-10-20T10:53:35.495Z,97660.19
2022-10-20T10:59:06.489Z,97664.06
2022-10-20T11:04:47.443Z,97656.44
2022-10-20T11:10:19.388Z,97653.44
2022-10-20T11:15:42.458Z,97646.66
2022-10-20T11:21:21.154Z,97648.06
2022-10-20T11:26:35.486Z,97649.13
2022-10-20T11:31:51.886Z,97653.16
2022-10-20T11:37:26.399Z,97653.31
2022-10-20T11:43:08.894Z,97650.88
2022-10-20T11:48:38.992Z,97645.81
2022-10-20T11:53:55.070Z,97637.72
2022-10-20T11:59:10.397Z,97649.56
2022-10-20T12:04:36.719Z,97636.63
2022-10-20T12:10:06.345Z,97637.06
2022-10-20T12:15:24.117Z,97641.50
2022-10-20T12:20:28.260Z,97635.16
2022-10-20T12:25:31.553Z,97628.41
2022-10-20T12:30:37.939Z,97628.72
2022-10-20T12:36:19.542Z,97623.56
2022-10-20T12:41:25.631Z,97620.97
2022-10-20T12:46:32.222Z,97622.81
2022-10-20T12:51:41.161Z,97626.22
2022-10-20T12:56:45.248Z,97623.31
2022-10-20T13:02:10.106Z,97619.97
2022-10-20T13:07:13.654Z,97616.81
2022-10-20T13:12:27.918Z,97621.38
2022-10-20T13:17:45.517Z,97612.19
2022-10-20T13:22:53.865Z,97619.88
2022-10-20T13:28:13.636Z,97614.47
2022-10-20T13:34:03.427Z,97606.28
2022-10-20T13:39:12.862Z,97601.72
2022-10-20T13:44:43.942Z,97610.22
2022-10-20T13:49:54.305Z,97606.06
2022-10-20T13:55:00.146Z,97597.09
2022-10-20T14:00:24.665Z,97610.41
2022-10-20T14:05:38.166Z,97611.50
2022-10-20T14:11:05.770Z,97608.94
2022-10-20T14:16:21.515Z,97600.44
2022-10-20T14:21:25.015Z,97608.19
2022-10-20T14:26:29.477Z,97600.75
2022-10-20T14:31:33.090Z,97594.44
2022-10-20T14:36:36.374Z,97594.59
2022-10-20T14:41:39.806Z,97601.88
2022-10-20T14:46:47.018Z,97609.19
2022-10-20T14:52:00.716Z,97612.84
2022-10-20T14:57:10.270Z,97605.88
2022-10-20T15:02:17.591Z,97616.03
2022-10-20T15:07:28.896Z,97620.44
2022-10-20T15:12:38.220Z,97602.31
2022-10-20T15:17:49.107Z,97590.47
2022-10-20T15:22:55.275Z,97604.47
2022-10-20T15:27:59.730Z,97615.19
2022-10-20T15:33:04.459Z,97614.94
2022-10-20T15:38:09.789Z,97617.16
2022-10-20T15:43:16.501Z,97624.84
2022-10-20T15:48:20.650Z,97634.91
2022-10-20T15:53:24.353Z,97627.56
2022-10-20T15:58:30.936Z,97643.34
2022-10-20T16:03:34.214Z,97649.59
2022-10-20T16:08:41.204Z,97631.41
2022-10-20T16:13:45.252Z,97628.72
2022-10-20T16:18:49.073Z,97637.41
2022-10-20T16:23:52.712Z,97641.22
2022-10-20T16:28:56.248Z,97654.31
2022-10-20T16:33:59.743Z,97671.47
2022-10-20T16:39:03.370Z,97683.16
2022-10-20T16:44:07.266Z,97710.34
2022-10-20T16:49:11.079Z,97726.94
2022-10-20T16:54:14.572Z,97769.81
2022-10-20T16:59:17.899Z,97775.53
2022-10-20T17:04:21.223Z,97785.56
2022-10-20T17:09:24.866Z,97785.00
2022-10-20T17:14:28.080Z,97787.44
2022-10-20T17:19:31.427Z,97785.00
2022-10-20T17:24:34.889Z,97784.44
2022-10-20T17:29:39.876Z,97791.44
2022-10-20T17:34:46.561Z,97791.69
2022-10-20T17:39:49.686Z,97760.69
2022-10-20T17:44:52.912Z,97721.78
2022-10-20T17:49:56.209Z,97689.44
2022-10-20T17:55:00.363Z,97703.84
2022-10-20T18:00:11.033Z,97662.00
2022-10-20T18:05:19.004Z,97657.16
2022-10-20T18:15:30.929Z,97630.41
2022-10-20T18:20:34.437Z,97688.38
2022-10-20T18:25:37.923Z,97710.63
2022-10-20T18:30:41.398Z,97724.44
2022-10-20T18:35:45.247Z,97719.81
2022-10-20T18:40:48.914Z,97714.69
2022-10-20T18:45:52.479Z,97731.31
2022-10-20T18:51:01.671Z,97702.00
2022-10-20T18:56:18.943Z,97704.22
2022-10-20T19:01:26.981Z,97701.50
2022-10-20T19:06:42.949Z,97702.84
2022-10-20T19:11:47.666Z,97697.41
2022-10-20T19:16:51.283Z,97686.78
2022-10-20T19:21:54.610Z,97687.25
2022-10-20T19:32:22.352Z,97680.47
2022-10-20T19:37:25.915Z,97680.81
2022-10-20T19:42:29.499Z,97692.00
2022-10-20T19:47:32.807Z,97692.84
2022-10-20T19:52:36.317Z,97699.16
2022-10-20T20:02:44.861Z,97708.97
2022-10-20T20:07:48.283Z,97708.19
2022-10-20T20:12:54.376Z,97709.06
2022-10-20T20:17:58.179Z,97704.75
2022-10-20T20:23:02.047Z,97711.84
2022-10-20T20:28:06.652Z,97715.94
2022-10-20T20:33:11.297Z,97724.63
2022-10-20T20:38:14.853Z,97721.69
2022-10-20T20:43:20.474Z,97723.84
2022-10-20T20:48:25.262Z,97730.34
2022-10-20T20:53:28.878Z,97728.19
2022-10-20T20:58:32.554Z,97718.16
2022-10-20T21:03:36.347Z,97727.91
2022-10-20T21:08:43.541Z,97727.63
2022-10-20T21:13:58.560Z,97719.19
2022-10-20T21:19:10.117Z,97722.97
2022-10-20T21:24:13.872Z,97721.06
2022-10-20T21:29:17.904Z,97726.44
2022-10-20T21:34:21.766Z,97725.63
2022-10-20T21:39:25.021Z,97737.06
2022-10-20T21:44:28.501Z,97722.13
2022-10-20T21:49:31.889Z,97714.81
2022-10-20T21:54:35.358Z,97705.03
2022-10-20T21:59:39.006Z,97691.72
2022-10-20T22:04:42.467Z,97677.66
2022-10-20T22:09:46.054Z,97670.59
2022-10-20T22:14:49.581Z,97673.06
2022-10-20T22:19:53.000Z,97671.19
2022-10-20T22:24:56.152Z,97674.16
2022-10-20T22:29:59.301Z,97673.91
2022-10-20T22:35:02.520Z,97642.38
2022-10-20T22:40:06.846Z,97643.47
2022-10-20T22:45:11.349Z,97653.28
2022-10-20T22:50:14.863Z,97686.72
2022-10-20T22:55:18.805Z,97670.44
2022-10-20T23:00:22.033Z,97665.03
2022-10-20T23:05:25.716Z,97650.41
2022-10-20T23:10:29.364Z,97639.81
2022-10-20T23:15:32.893Z,97628.44
2022-10-20T23:20:43.195Z,97626.53
2022-10-20T23:25:50.820Z,97607.81
2022-10-20T23:31:06.635Z,97629.00
2022-10-20T23:36:14.991Z,97628.44
2022-10-20T23:41:18.529Z,97610.03
2022-10-20T23:46:22.533Z,97592.94
2022-10-20T23:51:25.983Z,97583.44
2022-10-20T23:56:29.440Z,97591.06
